Time;durP1;ratioP1;P1;durP2;ratioP2;P2;SDS_P1;SDS_P2;PMS_P1;PMS_P2;Temp;Humidity;BMP_temperature;BMP_pressure;BME280_temperature;BME280_humidity;BME280_pressure;Samples;Min_cycle;Max_cycle;Signal;HPM_P1;HPM_P2
2021/01/04 00:02:21;;;;;;;6.80;6.30;;;;;;;1.62;84.82;100557.31;5036598;28;20191;-85
2021/01/04 00:05:23;;;;;;;6.37;5.87;;;;;;;1.64;84.72;100563.38;5036869;28;20198;-85
2021/01/04 00:08:18;;;;;;;8.10;7.50;;;;;;;1.63;84.60;100556.50;5036631;28;20605;-85
2021/01/04 00:11:10;;;;;;;6.60;6.10;;;;;;;1.60;84.70;100561.56;5037248;28;20193;-84
2021/01/04 00:13:42;;;;;;;6.00;5.57;;;;;;;1.60;84.99;100559.00;5036398;28;20216;-85
2021/01/04 00:16:15;;;;;;;5.87;5.47;;;;;;;1.58;84.43;100553.81;5036501;28;20226;-85
2021/01/04 00:18:44;;;;;;;5.77;5.37;;;;;;;1.58;84.60;100565.81;5036270;28;20718;-85
2021/01/04 00:21:23;;;;;;;5.20;4.80;;;;;;;1.59;85.13;100560.72;5043273;28;20668;-84
2021/01/04 00:23:59;;;;;;;5.60;5.20;;;;;;;1.59;84.65;100557.28;5036126;28;20224;-85
2021/01/04 00:26:29;;;;;;;6.17;5.67;;;;;;;1.55;84.63;100558.94;5031967;28;20186;-84
2021/01/04 00:28:57;;;;;;;5.47;4.97;;;;;;;1.59;84.54;100560.72;5040278;28;20222;-83
2021/01/04 00:31:27;;;;;;;6.30;5.80;;;;;;;1.59;85.05;100559.84;5049688;28;20198;-83
2021/01/04 00:33:55;;;;;;;6.53;6.03;;;;;;;1.54;84.85;100567.47;5039979;28;20202;-83
2021/01/04 00:36:25;;;;;;;6.43;5.93;;;;;;;1.54;85.48;100554.59;5033943;28;20226;-86
2021/01/04 00:39:27;;;;;;;5.57;5.17;;;;;;;1.57;84.79;100557.25;5033669;28;20234;-86
2021/01/04 00:42:03;;;;;;;5.60;5.20;;;;;;;1.61;85.63;100572.75;5035123;28;20236;-83
2021/01/04 00:44:42;;;;;;;6.30;5.80;;;;;;;1.59;85.51;100568.44;5035116;28;20190;-84
2021/01/04 00:47:15;;;;;;;5.90;5.40;;;;;;;1.61;84.83;100571.03;5035250;28;20194;-85
2021/01/04 00:49:47;;;;;;;6.23;5.73;;;;;;;1.60;85.03;100564.16;5035192;28;20234;-84
2021/01/04 00:52:23;;;;;;;5.67;5.27;;;;;;;1.59;84.91;100562.44;5035377;28;20190;-85
2021/01/04 00:55:14;;;;;;;6.23;5.73;;;;;;;1.51;85.41;100569.13;5035165;28;20194;-84
2021/01/04 00:58:00;;;;;;;6.73;6.23;;;;;;;1.51;85.36;100567.41;5034617;28;20206;-83
2021/01/04 01:00:29;;;;;;;6.30;5.80;;;;;;;1.59;85.28;100565.88;5034659;28;20830;-84
2021/01/04 01:03:20;;;;;;;6.10;5.60;;;;;;;1.54;84.94;100572.59;5034912;28;20742;-84
2021/01/04 01:05:58;;;;;;;6.67;6.17;;;;;;;1.51;85.19;100567.41;5035147;28;20197;-85
2021/01/04 01:08:27;;;;;;;5.63;5.13;;;;;;;1.49;85.79;100569.09;5035152;28;20813;-83
2021/01/04 01:10:59;;;;;;;6.27;5.73;;;;;;;1.56;84.97;100562.34;5025496;28;20206;-85
2021/01/04 01:13:50;;;;;;;6.37;5.77;;;;;;;1.57;84.96;100567.53;5015184;28;20608;-85
2021/01/04 01:16:44;;;;;;;6.13;5.63;;;;;;;1.60;84.67;100569.28;5014725;28;20249;-85
2021/01/04 01:19:17;;;;;;;5.83;5.43;;;;;;;1.63;84.65;100571.94;5009989;28;20233;-84
2021/01/04 01:21:44;;;;;;;5.17;4.77;;;;;;;1.62;84.98;100577.91;5035187;28;20194;-85
2021/01/04 01:24:12;;;;;;;5.70;5.30;;;;;;;1.58;84.89;100573.53;5034607;28;20210;-83
2021/01/04 01:26:55;;;;;;;5.90;5.47;;;;;;;1.61;85.79;100565.03;5034190;28;20202;-84
2021/01/04 01:29:53;;;;;;;5.60;5.20;;;;;;;1.61;85.08;100573.63;5034735;28;20230;-83
2021/01/04 01:32:41;;;;;;;5.67;5.17;;;;;;;1.57;85.35;100570.13;5015057;28;20203;-84
2021/01/04 01:35:20;;;;;;;6.17;5.67;;;;;;;1.63;84.66;100569.38;5024727;28;20225;-86
2021/01/04 01:38:10;;;;;;;6.03;5.53;;;;;;;1.65;84.37;100571.97;5034857;28;20194;-85
2021/01/04 01:41:06;;;;;;;5.77;5.27;;;;;;;1.63;84.67;100581.38;5034154;28;20205;-85
2021/01/04 01:44:02;;;;;;;5.73;5.23;;;;;;;1.61;85.35;100585.63;5014523;28;20194;-85
2021/01/04 01:46:36;;;;;;;5.87;5.40;;;;;;;1.65;85.22;100585.69;5014086;28;20198;-84
2021/01/04 01:49:11;;;;;;;5.67;5.17;;;;;;;1.62;84.99;100583.06;5033952;28;20226;-87
2021/01/04 01:51:51;;;;;;;6.10;5.60;;;;;;;1.65;84.77;100580.56;5034791;28;20403;-84
2021/01/04 01:54:40;;;;;;;5.40;5.00;;;;;;;1.64;84.95;100583.09;5034406;28;20204;-84
2021/01/04 01:57:22;;;;;;;5.83;5.33;;;;;;;1.64;84.87;100585.66;5034534;28;20261;-85
2021/01/04 02:00:08;;;;;;;5.57;5.17;;;;;;;1.60;84.99;100592.44;5034563;28;20241;-85
2021/01/04 02:02:41;;;;;;;5.07;4.67;;;;;;;1.59;85.23;100596.75;5034785;28;20187;-84
2021/01/04 02:05:16;;;;;;;5.10;4.70;;;;;;;1.58;85.01;100594.97;5033308;28;20191;-85
2021/01/04 02:07:48;;;;;;;5.10;4.70;;;;;;;1.56;84.64;100586.38;5014691;28;20187;-85
2021/01/04 02:10:17;;;;;;;5.00;4.70;;;;;;;1.61;84.45;100590.78;5014637;28;20275;-84
2021/01/04 02:12:56;;;;;;;5.40;5.00;;;;;;;1.61;85.08;100588.19;5014964;28;20210;-85
2021/01/04 02:15:25;;;;;;;5.43;4.93;;;;;;;1.65;84.70;100588.28;5014400;28;20659;-84
2021/01/04 02:18:03;;;;;;;5.30;4.80;;;;;;;1.61;84.90;100591.63;5014740;28;20215;-84
2021/01/04 02:21:00;;;;;;;4.83;4.43;;;;;;;1.64;84.74;100589.09;5014046;28;20230;-84
2021/01/04 02:23:37;;;;;;;5.20;4.80;;;;;;;1.67;84.33;100589.16;5029389;28;20190;-84
2021/01/04 02:26:09;;;;;;;5.00;4.60;;;;;;;1.61;85.32;100583.06;5033195;28;20193;-83
2021/01/04 02:28:41;;;;;;;5.20;4.70;;;;;;;1.61;84.95;100586.47;5033339;28;20233;-82
2021/01/04 02:31:07;;;;;;;4.60;4.30;;;;;;;1.62;84.47;100583.06;5033026;28;20199;-82
2021/01/04 02:33:33;;;;;;;4.60;4.30;;;;;;;1.64;84.96;100588.25;5032977;28;20201;-82
2021/01/04 02:36:01;;;;;;;4.20;3.90;;;;;;;1.67;85.24;100583.16;5033022;28;20272;-83
2021/01/04 02:38:34;;;;;;;4.90;4.50;;;;;;;1.69;85.28;100589.22;5032867;28;20321;-82
2021/01/04 02:41:00;;;;;;;4.23;3.87;;;;;;;1.69;84.23;100587.50;5033120;28;20198;-84
2021/01/04 02:43:27;;;;;;;4.20;3.90;;;;;;;1.66;84.73;100595.13;5033167;28;20234;-85
2021/01/04 02:45:57;;;;;;;4.70;4.30;;;;;;;1.67;84.81;100589.16;5033844;28;20210;-84
2021/01/04 02:48:36;;;;;;;4.90;4.50;;;;;;;1.64;84.45;100585.66;5036782;28;20194;-82
2021/01/04 02:51:09;;;;;;;4.37;4.07;;;;;;;1.56;84.70;100586.38;5036588;28;20569;-82
2021/01/04 02:54:00;;;;;;;5.00;4.60;;;;;;;1.55;85.27;100584.66;5036722;28;20190;-82
2021/01/04 02:56:41;;;;;;;4.27;3.87;;;;;;;1.54;84.90;100582.91;5036650;28;20214;-85
2021/01/04 02:59:25;;;;;;;4.57;4.20;;;;;;;1.52;84.40;100581.13;5036371;28;20230;-86
2021/01/04 03:01:58;;;;;;;4.67;4.27;;;;;;;1.48;84.69;100584.50;5036384;28;20259;-82
2021/01/04 03:04:25;;;;;;;4.53;4.20;;;;;;;1.46;84.89;100594.75;5035904;28;20641;-84
2021/01/04 03:06:57;;;;;;;4.57;4.17;;;;;;;1.46;84.99;100588.75;5035926;28;20210;-84
2021/01/04 03:09:25;;;;;;;4.70;4.40;;;;;;;1.48;85.02;100589.63;5031353;28;20213;-84
2021/01/04 03:11:51;;;;;;;5.10;4.70;;;;;;;1.47;85.54;100582.78;5035869;28;20221;-85
2021/01/04 03:14:33;;;;;;;4.40;4.10;;;;;;;1.46;84.96;100588.75;5035505;28;20668;-83
2021/01/04 03:17:08;;;;;;;4.37;4.00;;;;;;;1.47;84.99;100591.34;5031132;28;20210;-82
2021/01/04 03:19:38;;;;;;;4.57;4.17;;;;;;;1.48;85.31;100585.34;5027254;28;20230;-85
2021/01/04 03:22:09;;;;;;;4.33;3.93;;;;;;;1.46;85.39;100589.59;5035714;28;20567;-83
2021/01/04 03:24:35;;;;;;;5.57;5.07;;;;;;;1.45;84.72;100592.13;5035927;28;20183;-82
2021/01/04 03:27:07;;;;;;;5.23;4.83;;;;;;;1.47;85.63;100580.19;5035805;28;20224;-83
2021/01/04 03:29:33;;;;;;;4.93;4.53;;;;;;;1.48;85.30;100585.34;5035834;28;20222;-82
2021/01/04 03:31:59;;;;;;;5.50;5.10;;;;;;;1.46;84.87;100594.75;5035640;28;20246;-83
2021/01/04 03:34:25;;;;;;;4.77;4.37;;;;;;;1.46;84.80;100592.16;5035693;28;20202;-82
2021/01/04 03:36:51;;;;;;;5.50;5.07;;;;;;;1.47;85.06;100591.34;5035734;28;20637;-83
2021/01/04 03:39:17;;;;;;;5.10;4.70;;;;;;;1.49;84.71;100583.66;5035489;28;20586;-83
2021/01/04 03:41:43;;;;;;;5.70;5.20;;;;;;;1.49;85.45;100591.38;5035813;28;20553;-83
2021/01/04 03:44:10;;;;;;;5.80;5.33;;;;;;;1.46;85.18;100588.75;5015864;28;20207;-84
2021/01/04 03:46:36;;;;;;;5.83;5.33;;;;;;;1.52;84.98;100588.84;5016078;28;20202;-82
2021/01/04 03:49:02;;;;;;;5.23;4.83;;;;;;;1.50;84.93;100595.69;5015643;28;20230;-82
2021/01/04 03:51:28;;;;;;;5.97;5.47;;;;;;;1.48;85.21;100593.06;5015143;28;20211;-82
2021/01/04 03:53:54;;;;;;;5.80;5.30;;;;;;;1.49;85.06;100596.53;5015809;28;20234;-83
2021/01/04 03:56:21;;;;;;;6.37;5.77;;;;;;;1.47;85.42;100591.34;5015292;28;20703;-84
2021/01/04 03:58:47;;;;;;;5.23;4.83;;;;;;;1.46;84.85;100588.75;5014826;28;20230;-83
2021/01/04 04:01:13;;;;;;;6.57;6.07;;;;;;;1.47;84.54;100593.06;5034901;28;20210;-85
2021/01/04 04:03:40;;;;;;;5.20;4.80;;;;;;;1.53;85.01;100588.03;5035099;28;20207;-87
2021/01/04 04:06:10;;;;;;;5.97;5.47;;;;;;;1.50;84.71;100599.09;5035120;28;20198;-82
2021/01/04 04:08:36;;;;;;;6.73;6.17;;;;;;;1.53;85.25;100588.03;5034682;28;20232;-84
2021/01/04 04:11:02;;;;;;;5.73;5.20;;;;;;;1.49;85.32;100581.97;5035374;28;20213;-85
2021/01/04 04:13:27;;;;;;;6.37;5.87;;;;;;;1.53;84.71;100594.03;5035081;28;20213;-83
2021/01/04 04:15:53;;;;;;;6.50;6.00;;;;;;;1.57;85.17;100590.69;5035088;28;20229;-82
2021/01/04 04:18:19;;;;;;;5.80;5.30;;;;;;;1.54;84.65;100588.03;5035138;28;20668;-83
2021/01/04 04:20:46;;;;;;;6.73;6.10;;;;;;;1.51;85.14;100595.72;5034848;28;20205;-84
2021/01/04 04:23:11;;;;;;;7.23;6.63;;;;;;;1.57;84.76;100582.13;5035096;28;20206;-82
2021/01/04 04:25:37;;;;;;;6.80;6.30;;;;;;;1.55;85.08;100584.66;5034547;28;20214;-82
2021/01/04 04:28:03;;;;;;;7.00;6.40;;;;;;;1.55;84.99;100584.66;5034910;28;20215;-84
2021/01/04 04:30:29;;;;;;;7.40;6.70;;;;;;;1.52;85.42;100584.56;5034103;28;20730;-82
2021/01/04 04:32:57;;;;;;;7.27;6.67;;;;;;;1.56;84.94;100588.94;5014619;28;20206;-83
2021/01/04 04:35:24;;;;;;;7.20;6.60;;;;;;;1.55;85.11;100582.06;5014734;28;20210;-82
2021/01/04 04:37:50;;;;;;;7.30;6.77;;;;;;;1.56;85.54;100588.94;5014983;28;20227;-82
2021/01/04 04:40:20;;;;;;;7.50;6.90;;;;;;;1.58;84.69;100583.84;5014561;28;20285;-82
2021/01/04 04:42:46;;;;;;;7.90;7.17;;;;;;;1.56;85.86;100593.22;5014751;28;20203;-82
2021/01/04 04:45:16;;;;;;;7.57;6.87;;;;;;;1.57;85.68;100590.69;5014674;28;20211;-82
2021/01/04 04:48:23;;;;;;;8.20;7.40;;;;;;;1.54;86.19;100593.19;5030815;28;20202;-82
2021/01/04 04:51:07;;;;;;;8.43;7.70;;;;;;;1.60;85.30;100597.59;4998170;28;20277;-85
2021/01/04 04:53:50;;;;;;;8.83;8.03;;;;;;;1.63;85.78;100591.66;5034375;28;20190;-82
2021/01/04 04:56:41;;;;;;;9.60;8.70;;;;;;;1.60;85.78;100597.59;5034281;28;20209;-85
2021/01/04 04:59:14;;;;;;;10.83;9.70;;;;;;;1.46;85.70;100594.75;5034062;28;20232;-83
2021/01/04 05:01:48;;;;;;;10.10;9.20;;;;;;;1.52;86.48;100592.28;5034212;28;20248;-83
2021/01/04 05:04:39;;;;;;;10.07;9.17;;;;;;;1.61;86.55;100594.19;5034137;28;20214;-84
2021/01/04 05:07:18;;;;;;;9.63;8.73;;;;;;;1.63;85.78;100592.53;5034590;28;20210;-82
2021/01/04 05:10:00;;;;;;;10.00;9.00;;;;;;;1.65;86.25;100597.72;5014524;28;20242;-87
2021/01/04 05:12:32;;;;;;;11.83;10.67;;;;;;;1.67;85.68;100602.03;5016126;28;20206;-86
2021/01/04 05:15:02;;;;;;;10.80;9.80;;;;;;;1.71;85.58;100595.25;5033811;28;20190;-82
2021/01/04 05:18:11;;;;;;;10.13;9.13;;;;;;;1.77;85.39;100595.38;5033509;28;20210;-83
2021/01/04 05:21:00;;;;;;;9.67;8.77;;;;;;;1.76;85.41;100591.03;5033708;28;20202;-83
2021/01/04 05:24:01;;;;;;;10.13;9.17;;;;;;;1.76;85.28;100596.19;5033721;28;20277;-83
2021/01/04 05:26:42;;;;;;;10.17;9.17;;;;;;;1.70;85.67;100596.94;5003598;28;20202;-82
2021/01/04 05:29:32;;;;;;;11.37;10.27;;;;;;;1.68;85.91;100596.03;5028308;28;20232;-82
2021/01/04 05:32:21;;;;;;;12.37;11.07;;;;;;;1.67;86.78;100594.31;5033644;28;20198;-83
2021/01/04 05:34:50;;;;;;;11.17;9.87;;;;;;;1.75;86.32;100603.06;5034101;28;20660;-82
2021/01/04 05:37:33;;;;;;;10.17;9.23;;;;;;;1.79;86.35;100602.28;5033624;28;20703;-82
2021/01/04 05:40:11;;;;;;;10.50;9.57;;;;;;;1.79;86.25;100597.13;5030950;28;20238;-82
2021/01/04 05:42:56;;;;;;;10.80;9.80;;;;;;;1.83;85.59;100592.91;5034009;28;20209;-83
2021/01/04 05:45:27;;;;;;;12.53;11.33;;;;;;;1.83;86.13;100592.91;5033382;28;20660;-84
2021/01/04 05:48:06;;;;;;;13.13;9.67;;;;;;;1.85;85.60;100593.81;5035944;28;20202;-83
2021/01/04 05:50:38;;;;;;;12.67;11.47;;;;;;;1.84;85.30;100596.34;5031865;28;20202;-83
2021/01/04 05:53:04;;;;;;;13.17;10.20;;;;;;;1.74;85.62;100601.31;5035275;28;20202;-82
2021/01/04 05:55:30;;;;;;;10.43;9.47;;;;;;;1.81;85.32;100596.31;5034177;28;20639;-81
2021/01/04 05:57:57;;;;;;;11.17;10.17;;;;;;;1.83;85.74;100590.34;5038388;28;20275;-82
2021/01/04 06:00:28;;;;;;;12.70;10.63;;;;;;;1.84;86.30;100586.91;5034600;28;20240;-83
2021/01/04 06:03:05;;;;;;;9.37;8.57;;;;;;;1.88;84.97;100596.41;5039658;28;20220;-83
2021/01/04 06:05:31;;;;;;;10.27;9.27;;;;;;;1.81;85.20;100601.44;5032502;28;20679;-83
2021/01/04 06:07:57;;;;;;;9.07;8.27;;;;;;;1.83;85.19;100592.03;5041370;28;20206;-83
2021/01/04 06:10:28;;;;;;;9.77;8.77;;;;;;;1.85;85.33;100593.81;5035196;28;20598;-83
2021/01/04 06:12:54;;;;;;;11.07;9.97;;;;;;;1.84;86.03;100597.19;5034833;28;20206;-83
2021/01/04 06:15:28;;;;;;;10.53;9.43;;;;;;;1.86;85.51;100599.81;5037147;28;20202;-83
2021/01/04 06:18:01;;;;;;;13.10;11.90;;;;;;;1.86;85.49;100592.09;5034362;28;20206;-83
2021/01/04 06:20:42;;;;;;;11.43;10.23;;;;;;;1.86;84.95;100590.38;5033406;28;20232;-82
2021/01/04 06:23:11;;;;;;;14.07;12.93;;;;;;;1.88;85.65;100592.97;5042242;28;20251;-83
2021/01/04 06:25:37;;;;;;;11.43;10.33;;;;;;;1.83;85.15;100587.75;5037021;28;20297;-82
2021/01/04 06:28:04;;;;;;;15.03;13.57;;;;;;;1.86;85.85;100589.50;5038055;28;20198;-83
2021/01/04 06:30:34;;;;;;;13.10;11.80;;;;;;;1.88;85.62;100593.84;5041066;28;20620;-83
2021/01/04 06:33:07;;;;;;;11.20;10.00;;;;;;;1.85;85.98;100592.94;5031426;28;20199;-82
2021/01/04 06:35:36;;;;;;;11.70;10.50;;;;;;;1.86;85.95;100599.81;5038813;28;20209;-80
2021/01/04 06:38:12;;;;;;;16.13;14.53;;;;;;;1.88;85.09;100601.56;5046519;28;20613;-81
2021/01/04 06:40:41;;;;;;;9.93;8.93;;;;;;;1.93;85.15;100601.69;5041514;28;20573;-80
2021/01/04 06:43:13;;;;;;;13.67;12.37;;;;;;;1.94;85.25;100605.97;5047655;28;20202;-80
2021/01/04 06:45:52;;;;;;;12.10;10.90;;;;;;;1.96;84.76;100605.19;5046242;28;20661;-82
2021/01/04 06:48:24;;;;;;;13.40;12.10;;;;;;;1.98;84.95;100613.78;5044777;28;20272;-80
2021/01/04 06:51:09;;;;;;;12.20;11.10;;;;;;;1.97;84.71;100613.75;5040003;28;20195;-79
2021/01/04 06:57:32;;;;;;;22.90;17.33;;;;;;;1.90;85.25;100610.22;5014070;28;20245;-79
2021/01/04 07:00:30;;;;;;;17.10;15.27;;;;;;;1.90;84.99;100610.22;5040484;28;20276;-79
2021/01/04 07:03:39;;;;;;;16.97;14.00;;;;;;;1.93;85.39;100627.41;5046363;28;20202;-80
2021/01/04 07:06:24;;;;;;;11.37;10.40;;;;;;;1.90;85.25;100617.94;5041584;28;20198;-83
2021/01/04 07:09:12;;;;;;;16.97;15.47;;;;;;;1.91;84.83;100621.38;5036916;28;20710;-83
2021/01/04 07:11:46;;;;;;;13.33;12.13;;;;;;;1.93;84.62;100620.56;5035034;28;20202;-81
2021/01/04 07:14:30;;;;;;;14.50;13.03;;;;;;;1.97;85.02;100626.63;5041890;28;20213;-84
2021/01/04 07:31:00;;;;;;;18.63;13.03;;;;;;;2.03;84.87;100629.31;4954982;28;20216;-82
2021/01/04 07:37:59;;;;;;;8.60;7.80;;;;;;;1.98;84.68;100639.53;5016491;28;20234;-83
2021/01/04 07:41:21;;;;;;;9.50;8.60;;;;;;;1.94;84.35;100640.31;5030619;28;20226;-83
2021/01/04 07:44:23;;;;;;;10.63;9.50;;;;;;;1.89;85.17;100641.06;5035851;28;20202;-84
2021/01/04 07:47:23;;;;;;;12.73;11.33;;;;;;;1.92;84.88;100635.97;5040787;28;20215;-80
2021/01/04 07:50:23;;;;;;;9.97;9.07;;;;;;;1.94;84.81;100639.44;5025649;28;20230;-81
2021/01/04 07:53:21;;;;;;;19.53;15.93;;;;;;;1.96;84.51;100640.31;5044932;28;20210;-82
2021/01/04 07:59:54;;;;;;;25.27;18.77;;;;;;;1.98;85.02;100639.53;5029192;28;20222;-83
2021/01/04 08:03:11;;;;;;;7.67;7.07;;;;;;;2.02;84.47;100647.31;5045332;28;20690;-84
2021/01/04 08:06:00;;;;;;;11.23;10.13;;;;;;;1.98;84.80;100646.38;4938386;29;20259;-82
2021/01/04 08:08:45;;;;;;;21.20;17.33;;;;;;;2.00;84.48;100647.28;4953004;29;20205;-82
2021/01/04 08:11:50;;;;;;;9.23;8.52;;;;;;;2.10;84.29;100654.34;5023647;28;20448;-82
2021/01/04 08:14:50;;;;;;;8.83;8.03;;;;;;;2.17;84.55;100650.19;5015013;28;20206;-83
2021/01/04 08:17:29;;;;;;;5.70;5.30;;;;;;;2.16;84.12;100645.84;5042937;28;20222;-83
2021/01/04 08:20:11;;;;;;;6.23;5.73;;;;;;;2.12;84.04;100649.22;5032781;28;20225;-82
2021/01/04 08:23:11;;;;;;;6.37;5.80;;;;;;;2.11;84.55;100657.78;5032349;28;20238;-84
2021/01/04 08:26:00;;;;;;;5.50;5.00;;;;;;;2.10;84.61;100667.22;5044975;28;20205;-83
2021/01/04 08:28:37;;;;;;;10.50;9.80;;;;;;;2.22;84.67;100651.13;5045594;28;20472;-83
2021/01/04 08:31:13;;;;;;;6.80;6.20;;;;;;;2.26;83.82;100658.09;5035115;28;20682;-85
2021/01/04 08:33:49;;;;;;;7.87;7.07;;;;;;;2.30;83.34;100658.97;5043938;28;20800;-85
2021/01/04 08:36:20;;;;;;;6.00;5.50;;;;;;;2.29;83.85;100668.44;5040904;28;20224;-85
2021/01/04 08:38:46;;;;;;;6.80;6.20;;;;;;;2.22;84.40;100669.16;5046573;28;20277;-80
2021/01/04 08:41:48;;;;;;;6.93;6.33;;;;;;;2.25;84.07;100674.34;5044726;28;20214;-85
2021/01/04 08:44:17;;;;;;;5.90;5.37;;;;;;;2.29;83.64;100677.88;5042095;28;20255;-83
2021/01/04 08:46:46;;;;;;;4.67;4.27;;;;;;;2.28;83.84;100669.28;5043204;28;20198;-87
2021/01/04 08:49:19;;;;;;;5.30;4.90;;;;;;;2.28;83.36;100671.84;5036080;28;20230;-85
2021/01/04 08:51:47;;;;;;;4.67;4.37;;;;;;;2.25;83.58;100673.50;5045657;28;20209;-84
2021/01/04 08:54:29;;;;;;;5.00;4.60;;;;;;;2.24;83.96;100666.59;5043630;28;20236;-84
2021/01/04 08:57:09;;;;;;;4.70;4.40;;;;;;;2.21;83.83;100680.28;5041452;28;20271;-82
2021/01/04 08:59:36;;;;;;;4.87;4.53;;;;;;;2.19;83.68;100674.25;5036408;28;20251;-84
2021/01/04 09:02:24;;;;;;;4.77;4.47;;;;;;;2.22;83.77;100670.84;5040286;28;20202;-84
2021/01/04 09:04:59;;;;;;;5.13;4.67;;;;;;;2.20;83.53;100673.44;5043537;28;20687;-85
2021/01/04 09:07:27;;;;;;;5.07;4.70;;;;;;;2.15;83.85;100670.75;5046477;28;20236;-82
2021/01/04 09:09:56;;;;;;;5.50;5.10;;;;;;;2.17;83.92;100670.78;5042335;28;20567;-83
2021/01/04 09:12:35;;;;;;;4.87;4.50;;;;;;;2.14;84.08;100673.28;5050237;28;20194;-86
2021/01/04 09:15:05;;;;;;;5.13;4.73;;;;;;;2.12;83.21;100672.38;5042796;28;20208;-80
2021/01/04 09:17:40;;;;;;;5.47;5.03;;;;;;;2.10;83.94;100676.63;5046511;28;20217;-81
2021/01/04 09:20:16;;;;;;;5.20;4.80;;;;;;;2.11;84.00;100681.81;5045281;28;20260;-79
2021/01/04 09:22:42;;;;;;;5.20;4.80;;;;;;;2.06;83.63;100674.84;5038438;28;20221;-80
2021/01/04 09:25:20;;;;;;;5.07;4.70;;;;;;;2.09;84.46;100678.34;5032335;28;20440;-79
2021/01/04 09:27:48;;;;;;;4.33;4.00;;;;;;;2.13;84.00;100681.88;5037840;28;20524;-81
2021/01/04 09:30:20;;;;;;;3.90;3.60;;;;;;;2.12;83.70;100686.16;5037294;28;20702;-85
2021/01/04 09:32:48;;;;;;;5.03;4.73;;;;;;;2.23;84.13;100686.34;5045953;28;20485;-81
2021/01/04 09:35:20;;;;;;;4.97;4.57;;;;;;;2.26;83.69;100685.53;5037355;28;20206;-84
2021/01/04 09:37:45;;;;;;;4.83;4.33;;;;;;;2.23;82.89;100690.63;5043854;28;20221;-82
2021/01/04 09:40:17;;;;;;;4.23;3.93;;;;;;;2.17;83.41;100686.22;5041886;28;20237;-82
2021/01/04 09:42:44;;;;;;;6.13;5.72;;;;;;;2.24;83.31;100682.06;5040181;28;20441;-84
2021/01/04 09:45:14;;;;;;;4.33;4.03;;;;;;;2.21;83.26;100685.44;5041679;28;20649;-81
2021/01/04 09:47:45;;;;;;;5.28;4.97;;;;;;;2.28;83.23;100678.69;5039268;28;20441;-84
2021/01/04 09:50:21;;;;;;;4.40;4.10;;;;;;;2.27;83.75;100677.84;5036512;28;20303;-83
2021/01/04 09:52:53;;;;;;;9.80;9.00;;;;;;;2.30;83.97;100677.00;5042137;28;20830;-83
2021/01/04 09:55:31;;;;;;;3.73;3.43;;;;;;;2.28;83.55;100677.00;5041094;28;20202;-82
2021/01/04 09:58:00;;;;;;;4.00;3.70;;;;;;;2.23;83.27;100677.75;5042131;28;20232;-82
2021/01/04 10:00:29;;;;;;;4.13;3.73;;;;;;;2.11;84.14;100681.81;5043891;28;20221;-81
2021/01/04 10:03:01;;;;;;;3.40;3.10;;;;;;;2.12;83.58;100680.09;5044749;28;20198;-82
2021/01/04 10:05:34;;;;;;;3.57;3.27;;;;;;;2.11;83.75;100679.25;5041971;28;20198;-83
2021/01/04 10:08:04;;;;;;;4.87;4.57;;;;;;;2.10;84.54;100674.06;5044151;28;20277;-84
2021/01/04 10:10:29;;;;;;;4.00;3.70;;;;;;;2.09;84.14;100678.34;5042850;28;20229;-84
2021/01/04 10:13:05;;;;;;;4.07;3.77;;;;;;;2.09;84.40;100683.50;5045140;28;20254;-84
2021/01/04 10:15:32;;;;;;;4.47;4.17;;;;;;;2.07;84.46;100677.47;5043868;28;20201;-83
2021/01/04 10:18:08;;;;;;;5.17;4.77;;;;;;;2.03;84.89;100683.38;5047413;28;20213;-86
2021/01/04 10:20:39;;;;;;;6.23;5.57;;;;;;;1.99;85.13;100686.75;5043413;28;20667;-82
2021/01/04 10:23:06;;;;;;;7.70;6.20;;;;;;;1.97;84.96;100686.69;5049005;28;20217;-83
2021/01/04 10:25:37;;;;;;;6.43;5.83;;;;;;;1.94;85.45;100680.63;5041899;28;20201;-85
2021/01/04 10:28:04;;;;;;;6.10;5.60;;;;;;;1.98;85.53;100685.88;5060558;28;20182;-83
2021/01/04 10:30:31;;;;;;;5.17;4.67;;;;;;;1.99;85.07;100681.59;5060180;28;20229;-84
2021/01/04 10:33:06;;;;;;;4.73;4.27;;;;;;;1.96;84.83;100672.09;5063822;28;20197;-80
2021/01/04 10:35:33;;;;;;;6.27;4.47;;;;;;;1.95;85.34;100669.50;5059888;28;20216;-81
2021/01/04 10:38:06;;;;;;;4.50;4.20;;;;;;;1.88;84.99;100665.91;5062299;28;20218;-79
2021/01/04 10:40:42;;;;;;;4.50;3.93;;;;;;;1.87;85.58;100666.78;5058621;28;20233;-81
2021/01/04 10:43:08;;;;;;;4.73;4.33;;;;;;;1.87;85.71;100666.78;5058857;28;20229;-83
2021/01/04 10:45:37;;;;;;;4.13;3.83;;;;;;;1.84;85.69;100661.53;5060488;28;20201;-81
2021/01/04 10:48:11;;;;;;;4.40;4.10;;;;;;;1.90;85.35;100656.53;5063173;28;20246;-84
2021/01/04 10:50:39;;;;;;;3.87;3.57;;;;;;;1.91;85.48;100657.41;5049972;28;20217;-82
2021/01/04 10:53:09;;;;;;;4.67;3.90;;;;;;;1.91;85.23;100663.41;5049258;28;20202;-83
2021/01/04 10:55:48;;;;;;;4.63;4.23;;;;;;;1.94;85.09;100660.03;5043728;28;20207;-82
2021/01/04 10:58:19;;;;;;;4.20;3.90;;;;;;;1.94;86.30;100658.34;5046663;28;20285;-80
2021/01/04 11:00:51;;;;;;;4.17;3.87;;;;;;;1.99;86.08;100656.72;5044699;28;20198;-83
2021/01/04 11:03:18;;;;;;;4.17;3.87;;;;;;;2.05;85.56;100657.69;5046557;28;20221;-82
2021/01/04 11:05:47;;;;;;;3.67;3.17;;;;;;;2.13;85.60;100653.53;5041645;28;20235;-82
2021/01/04 11:08:26;;;;;;;4.17;3.07;;;;;;;2.14;84.82;100652.69;5045579;28;20236;-82
2021/01/04 11:10:56;;;;;;;3.90;3.60;;;;;;;2.14;84.57;100661.28;5044982;28;20280;-82
2021/01/04 11:13:44;;;;;;;3.87;3.57;;;;;;;2.12;84.23;100652.69;5048064;28;20211;-81
2021/01/04 11:16:13;;;;;;;6.00;5.60;;;;;;;2.17;84.73;100647.59;5046651;28;20492;-82
2021/01/04 11:18:47;;;;;;;4.80;4.40;;;;;;;2.25;83.89;100650.31;5054897;28;20230;-84
2021/01/04 11:21:14;;;;;;;4.80;3.83;;;;;;;2.24;84.06;100644.31;5052528;28;20194;-85
2021/01/04 11:23:41;;;;;;;4.07;3.73;;;;;;;2.25;83.67;100648.59;5049624;28;20210;-83
2021/01/04 11:26:08;;;;;;;5.20;4.80;;;;;;;2.21;83.92;100646.81;5046687;28;20229;-86
2021/01/04 11:28:34;;;;;;;7.63;7.13;;;;;;;2.18;83.50;100647.63;5050230;28;20225;-84
2021/01/04 11:31:00;;;;;;;10.07;9.47;;;;;;;2.21;83.59;100648.53;5044218;28;20221;-86
2021/01/04 11:36:57;;;;;;;6.88;6.47;;;;;;;2.25;83.55;100634.88;4967476;28;20478;-83
2021/01/04 11:39:24;;;;;;;4.33;4.03;;;;;;;2.28;83.07;100634.91;4982616;28;20603;-82
2021/01/04 11:41:51;;;;;;;5.07;4.10;;;;;;;2.28;83.05;100624.59;5047251;28;20204;-83
2021/01/04 11:44:17;;;;;;;5.47;4.97;;;;;;;2.28;83.16;100633.22;5051145;28;20229;-83
2021/01/04 11:46:43;;;;;;;3.40;3.20;;;;;;;2.25;83.00;100629.72;5051391;28;20214;-84
2021/01/04 11:49:09;;;;;;;3.90;3.60;;;;;;;2.15;82.75;100631.25;5049518;28;20217;-83
2021/01/04 11:51:34;;;;;;;4.10;3.80;;;;;;;2.10;83.80;100626.03;5051925;28;20206;-82
2021/01/04 11:54:00;;;;;;;3.50;3.20;;;;;;;2.10;83.58;100623.47;5047217;28;20212;-82
2021/01/04 11:56:30;;;;;;;4.00;3.70;;;;;;;2.08;83.50;100617.41;5051416;28;20217;-82
2021/01/04 11:58:57;;;;;;;4.20;3.90;;;;;;;2.07;83.65;100613.09;5036736;28;20223;-82
2021/01/04 12:01:24;;;;;;;3.83;3.53;;;;;;;2.04;83.76;100614.72;5047980;28;20205;-84
2021/01/04 12:03:51;;;;;;;3.90;3.60;;;;;;;2.07;84.09;100613.09;5043295;28;20251;-83
2021/01/04 12:06:17;;;;;;;3.60;3.40;;;;;;;2.09;83.77;100603.69;5042483;28;20198;-84
2021/01/04 12:08:43;;;;;;;7.27;6.67;;;;;;;2.05;83.92;100606.19;5046064;28;20289;-83
2021/01/04 12:11:10;;;;;;;4.27;3.97;;;;;;;2.04;84.16;100607.00;5044284;28;20372;-83
2021/01/04 12:13:36;;;;;;;3.37;3.17;;;;;;;2.04;84.16;100604.44;5049893;28;20202;-82
2021/01/04 12:16:03;;;;;;;3.50;3.30;;;;;;;2.08;83.95;100604.53;5049912;28;20565;-83
2021/01/04 12:18:28;;;;;;;3.87;3.57;;;;;;;2.09;84.19;100602.81;5051050;28;20706;-80
2021/01/04 12:20:55;;;;;;;3.80;3.50;;;;;;;2.09;83.92;100592.53;5045849;28;20194;-82
2021/01/04 12:23:21;;;;;;;3.20;3.00;;;;;;;2.04;84.09;100597.56;5043644;28;20549;-82
2021/01/04 12:25:47;;;;;;;3.27;3.07;;;;;;;2.06;84.34;100598.50;5043098;28;20198;-80
2021/01/04 12:28:13;;;;;;;3.70;3.40;;;;;;;2.07;83.57;100596.78;5049283;28;20265;-80
2021/01/04 12:30:40;;;;;;;4.33;4.03;;;;;;;2.03;84.14;100593.28;5044411;28;20205;-83
2021/01/04 12:33:06;;;;;;;3.70;3.47;;;;;;;2.01;84.50;100596.66;5047918;28;20198;-82
2021/01/04 12:35:34;;;;;;;4.00;3.70;;;;;;;1.99;83.77;100604.34;5044813;28;20205;-83
2021/01/04 12:38:00;;;;;;;10.50;9.67;;;;;;;2.00;83.87;100600.94;5048283;28;20217;-83